Verona, Italy

7:00 PM CET on January 27, 2015 (GMT +0100)
Villafranca Mil | Change Station
CLOSE
Current Station
Airport
Location: Verona,
Elevation: 223 ft
Nearby Weather Stations

Elev 223 ft 45.39 °N, 10.87 °E | Updated 15 minutes ago

Clear
Clear
34 °F
Feels Like 34 °F
N
2
Wind Variable Wind from West

Today
High -- | Low -- °F
--% Chance of Precip.
Yesterday
High -- | Low -- °F
Precip. -- in
7:43 AM 5:15 PM
First Quarter, 56% visible
Pressure 30.04 in
Visibility 3.7 miles
Clouds
Dew Point 30 °F
Humidity 87%
Rainfall 0.00 in
Snow Depth Not available.
UV Not available.
Pollen Not available.
Air Quality Not available.
Flu Activity Not available.
METAR LIPX 271745Z 28002KT 6000 NSC 01/M01 Q1017

More Conditions Fewer Conditions

Pressure 30.04 in
Visibility 3.7 miles
Clouds
Dew Point 30 °F
Humidity 87%
Rainfall 0.00 in
Snow Depth Not available.
UV Not available.
Pollen Not available.
Air Quality Not available.
Flu Activity Not available.
METAR LIPX 271745Z 28002KT 6000 NSC 01/M01 Q1017

More Conditions Fewer Conditions

10-Day Weather Forecast

Almanac

Astronomy

Jan. 27, 2015 Rise Set
Actual Time
Civil Twilight
Nautical Twilight
Astronomical Twilight
Moon
Length of Visible Light
Length of Day
Tomorrow will be .
, % of the Moon is Illuminated

Today's Extremes

Country Highs Country Lows

Community

WunderPhotos

Upload Photos

1,790,745 photos uploaded!

WunderBlogs® & News

Nearby

Air Quality

  Air Quality AQ Index Pollutant
Not available.

Snow Depth

Station Depth Elevation

Earthquake Activity

City Distance Mag. Time & Date
Minimum magnitude displayed is 2.5.

Coastal Water Temperatures

Place Temperature

Nearby Weather Stations